sensor_id;sensor_type;location;lat;lon;timestamp;P1;durP1;ratioP1;P2;durP2;ratioP2
64851;SDS011;56050;55.558;-4.644;2023-07-08T00:00:28;3.08;;;1.50;;
64851;SDS011;56050;55.558;-4.644;2023-07-08T00:02:53;2.60;;;1.00;;
64851;SDS011;56050;55.558;-4.644;2023-07-08T00:05:19;4.20;;;1.00;;
64851;SDS011;56050;55.558;-4.644;2023-07-08T00:07:46;4.28;;;1.27;;
64851;SDS011;56050;55.558;-4.644;2023-07-08T00:10:20;4.47;;;1.40;;
64851;SDS011;56050;55.558;-4.644;2023-07-08T00:12:48;4.03;;;1.48;;
64851;SDS011;56050;55.558;-4.644;2023-07-08T00:15:15;3.38;;;1.25;;
64851;SDS011;56050;55.558;-4.644;2023-07-08T00:17:42;4.40;;;1.00;;
64851;SDS011;56050;55.558;-4.644;2023-07-08T00:20:16;5.80;;;1.38;;
64851;SDS011;56050;55.558;-4.644;2023-07-08T00:22:45;2.58;;;0.93;;
64851;SDS011;56050;55.558;-4.644;2023-07-08T00:25:14;4.28;;;1.50;;
64851;SDS011;56050;55.558;-4.644;2023-07-08T00:27:40;2.92;;;2.22;;
64851;SDS011;56050;55.558;-4.644;2023-07-08T00:30:11;4.03;;;1.05;;
64851;SDS011;56050;55.558;-4.644;2023-07-08T00:32:44;2.67;;;1.35;;
64851;SDS011;56050;55.558;-4.644;2023-07-08T00:35:09;4.80;;;2.35;;
64851;SDS011;56050;55.558;-4.644;2023-07-08T00:37:34;3.83;;;1.48;;
64851;SDS011;56050;55.558;-4.644;2023-07-08T00:40:00;4.80;;;1.58;;
64851;SDS011;56050;55.558;-4.644;2023-07-08T00:42:25;3.80;;;0.90;;
64851;SDS011;56050;55.558;-4.644;2023-07-08T00:44:51;3.40;;;1.27;;
64851;SDS011;56050;55.558;-4.644;2023-07-08T00:47:16;3.35;;;1.60;;
64851;SDS011;56050;55.558;-4.644;2023-07-08T00:49:59;3.25;;;1.27;;
64851;SDS011;56050;55.558;-4.644;2023-07-08T00:52:29;3.97;;;1.10;;
64851;SDS011;56050;55.558;-4.644;2023-07-08T00:54:59;4.88;;;1.50;;
64851;SDS011;56050;55.558;-4.644;2023-07-08T00:57:30;3.75;;;1.70;;
64851;SDS011;56050;55.558;-4.644;2023-07-08T00:59:59;3.13;;;1.13;;
64851;SDS011;56050;55.558;-4.644;2023-07-08T01:02:29;5.07;;;1.67;;
64851;SDS011;56050;55.558;-4.644;2023-07-08T01:05:04;3.58;;;1.15;;
64851;SDS011;56050;55.558;-4.644;2023-07-08T01:07:35;3.70;;;1.70;;
64851;SDS011;56050;55.558;-4.644;2023-07-08T01:10:10;3.10;;;1.55;;
64851;SDS011;56050;55.558;-4.644;2023-07-08T01:12:41;3.47;;;1.13;;
64851;SDS011;56050;55.558;-4.644;2023-07-08T01:15:11;4.97;;;1.48;;
64851;SDS011;56050;55.558;-4.644;2023-07-08T01:17:39;5.22;;;1.25;;
64851;SDS011;56050;55.558;-4.644;2023-07-08T01:20:06;4.45;;;1.52;;
64851;SDS011;56050;55.558;-4.644;2023-07-08T01:22:35;7.07;;;1.88;;
64851;SDS011;56050;55.558;-4.644;2023-07-08T01:25:02;4.90;;;1.30;;
64851;SDS011;56050;55.558;-4.644;2023-07-08T01:27:29;3.50;;;1.50;;
64851;SDS011;56050;55.558;-4.644;2023-07-08T01:29:59;6.15;;;1.45;;
64851;SDS011;56050;55.558;-4.644;2023-07-08T01:32:25;3.83;;;1.40;;
64851;SDS011;56050;55.558;-4.644;2023-07-08T01:34:50;4.90;;;1.67;;
64851;SDS011;56050;55.558;-4.644;2023-07-08T01:37:27;4.50;;;1.20;;
64851;SDS011;56050;55.558;-4.644;2023-07-08T01:43:01;3.60;;;1.70;;
64851;SDS011;56050;55.558;-4.644;2023-07-08T01:45:29;4.70;;;1.52;;
64851;SDS011;56050;55.558;-4.644;2023-07-08T01:48:02;4.57;;;1.65;;
64851;SDS011;56050;55.558;-4.644;2023-07-08T01:50:31;4.85;;;1.65;;
64851;SDS011;56050;55.558;-4.644;2023-07-08T01:53:00;4.68;;;1.30;;
64851;SDS011;56050;55.558;-4.644;2023-07-08T01:55:31;4.90;;;1.70;;
64851;SDS011;56050;55.558;-4.644;2023-07-08T01:57:57;5.10;;;2.50;;
64851;SDS011;56050;55.558;-4.644;2023-07-08T02:00:22;4.28;;;2.10;;
64851;SDS011;56050;55.558;-4.644;2023-07-08T02:02:49;5.00;;;1.77;;
64851;SDS011;56050;55.558;-4.644;2023-07-08T02:05:15;5.47;;;1.80;;
64851;SDS011;56050;55.558;-4.644;2023-07-08T02:07:41;6.60;;;2.25;;
64851;SDS011;56050;55.558;-4.644;2023-07-08T02:10:07;4.20;;;1.35;;
64851;SDS011;56050;55.558;-4.644;2023-07-08T02:12:32;5.95;;;1.60;;
64851;SDS011;56050;55.558;-4.644;2023-07-08T02:15:01;3.97;;;1.55;;
64851;SDS011;56050;55.558;-4.644;2023-07-08T02:17:27;4.22;;;1.52;;
64851;SDS011;56050;55.558;-4.644;2023-07-08T02:19:56;10.50;;;2.45;;
64851;SDS011;56050;55.558;-4.644;2023-07-08T02:22:21;3.63;;;1.30;;
64851;SDS011;56050;55.558;-4.644;2023-07-08T02:24:47;5.18;;;1.50;;
64851;SDS011;56050;55.558;-4.644;2023-07-08T02:27:13;4.75;;;1.75;;
64851;SDS011;56050;55.558;-4.644;2023-07-08T02:29:39;4.60;;;1.40;;
64851;SDS011;56050;55.558;-4.644;2023-07-08T02:32:04;5.45;;;1.70;;
64851;SDS011;56050;55.558;-4.644;2023-07-08T02:34:30;5.25;;;1.90;;
64851;SDS011;56050;55.558;-4.644;2023-07-08T02:36:56;7.45;;;1.92;;
64851;SDS011;56050;55.558;-4.644;2023-07-08T02:39:21;6.90;;;3.53;;
64851;SDS011;56050;55.558;-4.644;2023-07-08T02:41:47;5.60;;;3.08;;
64851;SDS011;56050;55.558;-4.644;2023-07-08T02:44:13;5.57;;;2.25;;
64851;SDS011;56050;55.558;-4.644;2023-07-08T02:46:38;4.97;;;1.77;;
64851;SDS011;56050;55.558;-4.644;2023-07-08T02:49:04;4.75;;;2.00;;
64851;SDS011;56050;55.558;-4.644;2023-07-08T02:51:29;6.18;;;1.70;;
64851;SDS011;56050;55.558;-4.644;2023-07-08T02:53:55;5.60;;;3.30;;
64851;SDS011;56050;55.558;-4.644;2023-07-08T02:56:20;6.47;;;1.77;;
64851;SDS011;56050;55.558;-4.644;2023-07-08T02:58:47;5.47;;;1.95;;
64851;SDS011;56050;55.558;-4.644;2023-07-08T03:01:13;4.80;;;1.77;;
64851;SDS011;56050;55.558;-4.644;2023-07-08T03:03:42;5.10;;;1.98;;
64851;SDS011;56050;55.558;-4.644;2023-07-08T03:06:08;6.32;;;1.85;;
64851;SDS011;56050;55.558;-4.644;2023-07-08T03:08:34;6.10;;;2.00;;
64851;SDS011;56050;55.558;-4.644;2023-07-08T03:11:00;4.78;;;2.05;;
64851;SDS011;56050;55.558;-4.644;2023-07-08T03:13:28;6.15;;;1.92;;
64851;SDS011;56050;55.558;-4.644;2023-07-08T03:15:54;4.55;;;1.67;;
64851;SDS011;56050;55.558;-4.644;2023-07-08T03:18:20;4.55;;;1.75;;
64851;SDS011;56050;55.558;-4.644;2023-07-08T03:20:48;6.80;;;2.05;;
64851;SDS011;56050;55.558;-4.644;2023-07-08T03:23:14;4.30;;;2.40;;
64851;SDS011;56050;55.558;-4.644;2023-07-08T03:25:39;6.18;;;2.75;;
64851;SDS011;56050;55.558;-4.644;2023-07-08T03:28:05;4.82;;;3.28;;
64851;SDS011;56050;55.558;-4.644;2023-07-08T03:30:32;5.97;;;2.92;;
64851;SDS011;56050;55.558;-4.644;2023-07-08T03:32:58;5.97;;;3.22;;
64851;SDS011;56050;55.558;-4.644;2023-07-08T03:35:24;9.00;;;2.78;;
64851;SDS011;56050;55.558;-4.644;2023-07-08T03:37:50;5.15;;;2.53;;
64851;SDS011;56050;55.558;-4.644;2023-07-08T03:40:15;4.82;;;2.35;;
64851;SDS011;56050;55.558;-4.644;2023-07-08T03:42:41;5.93;;;2.08;;
64851;SDS011;56050;55.558;-4.644;2023-07-08T03:45:06;7.18;;;2.83;;
64851;SDS011;56050;55.558;-4.644;2023-07-08T03:47:32;5.63;;;2.33;;
64851;SDS011;56050;55.558;-4.644;2023-07-08T03:49:57;6.55;;;1.98;;
64851;SDS011;56050;55.558;-4.644;2023-07-08T03:52:23;6.90;;;2.58;;
64851;SDS011;56050;55.558;-4.644;2023-07-08T03:54:48;5.30;;;2.45;;
64851;SDS011;56050;55.558;-4.644;2023-07-08T03:57:13;6.43;;;3.33;;
64851;SDS011;56050;55.558;-4.644;2023-07-08T03:59:39;4.65;;;2.45;;
64851;SDS011;56050;55.558;-4.644;2023-07-08T04:02:04;9.38;;;3.00;;
64851;SDS011;56050;55.558;-4.644;2023-07-08T04:04:30;6.85;;;2.30;;
64851;SDS011;56050;55.558;-4.644;2023-07-08T04:06:55;5.82;;;2.22;;
64851;SDS011;56050;55.558;-4.644;2023-07-08T04:09:21;8.85;;;2.65;;
64851;SDS011;56050;55.558;-4.644;2023-07-08T04:11:46;11.13;;;2.85;;
64851;SDS011;56050;55.558;-4.644;2023-07-08T04:14:12;7.38;;;2.28;;
64851;SDS011;56050;55.558;-4.644;2023-07-08T04:16:48;5.85;;;2.67;;
64851;SDS011;56050;55.558;-4.644;2023-07-08T04:19:17;6.18;;;2.53;;
64851;SDS011;56050;55.558;-4.644;2023-07-08T04:21:44;6.18;;;2.63;;
64851;SDS011;56050;55.558;-4.644;2023-07-08T04:24:10;7.57;;;2.28;;
64851;SDS011;56050;55.558;-4.644;2023-07-08T04:26:37;6.25;;;2.03;;
64851;SDS011;56050;55.558;-4.644;2023-07-08T04:29:05;4.70;;;2.55;;
64851;SDS011;56050;55.558;-4.644;2023-07-08T04:31:35;7.40;;;2.58;;
64851;SDS011;56050;55.558;-4.644;2023-07-08T04:34:00;5.38;;;2.53;;
64851;SDS011;56050;55.558;-4.644;2023-07-08T04:36:26;8.70;;;1.95;;
64851;SDS011;56050;55.558;-4.644;2023-07-08T04:38:51;7.18;;;2.25;;
64851;SDS011;56050;55.558;-4.644;2023-07-08T04:41:17;8.32;;;2.33;;
64851;SDS011;56050;55.558;-4.644;2023-07-08T04:43:43;7.28;;;2.80;;
64851;SDS011;56050;55.558;-4.644;2023-07-08T04:46:19;6.35;;;2.17;;
64851;SDS011;56050;55.558;-4.644;2023-07-08T04:51:26;6.03;;;2.88;;
64851;SDS011;56050;55.558;-4.644;2023-07-08T04:53:51;5.55;;;2.28;;
64851;SDS011;56050;55.558;-4.644;2023-07-08T04:56:17;5.70;;;2.13;;
64851;SDS011;56050;55.558;-4.644;2023-07-08T04:58:42;6.68;;;2.50;;
64851;SDS011;56050;55.558;-4.644;2023-07-08T05:01:08;7.47;;;2.63;;
64851;SDS011;56050;55.558;-4.644;2023-07-08T05:03:33;6.57;;;2.58;;
64851;SDS011;56050;55.558;-4.644;2023-07-08T05:05:58;6.80;;;2.55;;
64851;SDS011;56050;55.558;-4.644;2023-07-08T05:08:24;6.15;;;2.40;;
64851;SDS011;56050;55.558;-4.644;2023-07-08T05:10:49;5.82;;;1.92;;
64851;SDS011;56050;55.558;-4.644;2023-07-08T05:13:15;5.60;;;2.45;;
64851;SDS011;56050;55.558;-4.644;2023-07-08T05:15:40;5.55;;;1.88;;
64851;SDS011;56050;55.558;-4.644;2023-07-08T05:18:06;4.95;;;1.92;;
64851;SDS011;56050;55.558;-4.644;2023-07-08T05:20:31;10.00;;;2.58;;
64851;SDS011;56050;55.558;-4.644;2023-07-08T05:22:59;10.18;;;2.10;;
64851;SDS011;56050;55.558;-4.644;2023-07-08T05:25:24;9.23;;;2.85;;
64851;SDS011;56050;55.558;-4.644;2023-07-08T05:27:49;7.05;;;2.83;;
64851;SDS011;56050;55.558;-4.644;2023-07-08T05:30:16;7.78;;;2.17;;
64851;SDS011;56050;55.558;-4.644;2023-07-08T05:32:43;7.32;;;2.28;;
64851;SDS011;56050;55.558;-4.644;2023-07-08T05:35:08;6.18;;;2.60;;
64851;SDS011;56050;55.558;-4.644;2023-07-08T05:37:34;6.82;;;2.05;;
64851;SDS011;56050;55.558;-4.644;2023-07-08T05:39:59;7.07;;;2.13;;
64851;SDS011;56050;55.558;-4.644;2023-07-08T05:42:28;5.00;;;2.15;;
64851;SDS011;56050;55.558;-4.644;2023-07-08T05:44:53;5.72;;;1.98;;
64851;SDS011;56050;55.558;-4.644;2023-07-08T05:47:20;6.35;;;2.00;;
64851;SDS011;56050;55.558;-4.644;2023-07-08T05:49:46;5.95;;;2.13;;
64851;SDS011;56050;55.558;-4.644;2023-07-08T05:52:12;5.68;;;2.42;;
64851;SDS011;56050;55.558;-4.644;2023-07-08T05:54:37;6.45;;;2.28;;
64851;SDS011;56050;55.558;-4.644;2023-07-08T05:57:04;6.55;;;2.33;;
64851;SDS011;56050;55.558;-4.644;2023-07-08T05:59:30;6.53;;;1.90;;
64851;SDS011;56050;55.558;-4.644;2023-07-08T06:01:55;6.68;;;2.45;;
64851;SDS011;56050;55.558;-4.644;2023-07-08T06:04:21;5.53;;;1.85;;
64851;SDS011;56050;55.558;-4.644;2023-07-08T06:06:47;4.68;;;2.35;;
64851;SDS011;56050;55.558;-4.644;2023-07-08T06:09:12;6.85;;;2.05;;
64851;SDS011;56050;55.558;-4.644;2023-07-08T06:11:38;6.25;;;2.33;;
64851;SDS011;56050;55.558;-4.644;2023-07-08T06:14:03;6.32;;;2.10;;
64851;SDS011;56050;55.558;-4.644;2023-07-08T06:16:29;5.75;;;1.83;;
64851;SDS011;56050;55.558;-4.644;2023-07-08T06:18:55;5.75;;;1.90;;
64851;SDS011;56050;55.558;-4.644;2023-07-08T06:21:22;5.20;;;1.92;;
64851;SDS011;56050;55.558;-4.644;2023-07-08T06:23:47;5.57;;;1.88;;
64851;SDS011;56050;55.558;-4.644;2023-07-08T06:26:13;6.40;;;2.58;;
64851;SDS011;56050;55.558;-4.644;2023-07-08T06:28:38;4.63;;;1.88;;
64851;SDS011;56050;55.558;-4.644;2023-07-08T06:31:03;10.05;;;1.95;;
64851;SDS011;56050;55.558;-4.644;2023-07-08T06:33:29;4.72;;;1.70;;
64851;SDS011;56050;55.558;-4.644;2023-07-08T06:35:54;5.25;;;2.13;;
64851;SDS011;56050;55.558;-4.644;2023-07-08T06:38:20;4.97;;;1.85;;
64851;SDS011;56050;55.558;-4.644;2023-07-08T06:40:45;5.82;;;1.90;;
64851;SDS011;56050;55.558;-4.644;2023-07-08T06:43:10;5.13;;;1.73;;
64851;SDS011;56050;55.558;-4.644;2023-07-08T06:45:36;5.55;;;2.08;;
64851;SDS011;56050;55.558;-4.644;2023-07-08T06:48:02;8.85;;;2.20;;
64851;SDS011;56050;55.558;-4.644;2023-07-08T06:50:27;5.55;;;3.15;;
64851;SDS011;56050;55.558;-4.644;2023-07-08T06:52:53;7.40;;;2.70;;
64851;SDS011;56050;55.558;-4.644;2023-07-08T06:55:18;6.18;;;1.88;;
64851;SDS011;56050;55.558;-4.644;2023-07-08T06:57:43;4.57;;;1.67;;
64851;SDS011;56050;55.558;-4.644;2023-07-08T07:00:10;7.57;;;2.22;;
64851;SDS011;56050;55.558;-4.644;2023-07-08T07:02:36;6.38;;;1.77;;
64851;SDS011;56050;55.558;-4.644;2023-07-08T07:05:02;6.65;;;2.25;;
64851;SDS011;56050;55.558;-4.644;2023-07-08T07:07:29;7.75;;;2.03;;
64851;SDS011;56050;55.558;-4.644;2023-07-08T07:09:54;5.97;;;2.03;;
64851;SDS011;56050;55.558;-4.644;2023-07-08T07:12:20;5.75;;;2.15;;
64851;SDS011;56050;55.558;-4.644;2023-07-08T07:14:46;6.82;;;2.28;;
64851;SDS011;56050;55.558;-4.644;2023-07-08T07:17:12;4.63;;;1.75;;
64851;SDS011;56050;55.558;-4.644;2023-07-08T07:19:37;7.55;;;1.85;;
64851;SDS011;56050;55.558;-4.644;2023-07-08T07:22:03;6.10;;;2.90;;
64851;SDS011;56050;55.558;-4.644;2023-07-08T07:24:28;7.03;;;1.80;;
64851;SDS011;56050;55.558;-4.644;2023-07-08T07:26:54;5.25;;;1.77;;
64851;SDS011;56050;55.558;-4.644;2023-07-08T07:29:21;6.30;;;2.00;;
64851;SDS011;56050;55.558;-4.644;2023-07-08T07:31:47;6.47;;;2.30;;
64851;SDS011;56050;55.558;-4.644;2023-07-08T07:34:12;5.93;;;2.05;;
64851;SDS011;56050;55.558;-4.644;2023-07-08T07:36:39;5.90;;;2.25;;
64851;SDS011;56050;55.558;-4.644;2023-07-08T07:39:05;4.78;;;1.85;;
64851;SDS011;56050;55.558;-4.644;2023-07-08T07:41:30;5.47;;;2.00;;
64851;SDS011;56050;55.558;-4.644;2023-07-08T07:43:56;6.05;;;1.77;;
64851;SDS011;56050;55.558;-4.644;2023-07-08T07:46:21;4.68;;;2.00;;
64851;SDS011;56050;55.558;-4.644;2023-07-08T07:48:47;7.15;;;1.85;;
64851;SDS011;56050;55.558;-4.644;2023-07-08T07:51:12;5.30;;;1.98;;
64851;SDS011;56050;55.558;-4.644;2023-07-08T07:53:39;5.28;;;1.98;;
64851;SDS011;56050;55.558;-4.644;2023-07-08T07:56:04;7.53;;;2.05;;
64851;SDS011;56050;55.558;-4.644;2023-07-08T07:58:31;5.80;;;2.33;;
64851;SDS011;56050;55.558;-4.644;2023-07-08T08:00:57;6.15;;;1.90;;
64851;SDS011;56050;55.558;-4.644;2023-07-08T08:03:22;5.00;;;1.77;;
64851;SDS011;56050;55.558;-4.644;2023-07-08T08:05:48;5.97;;;2.33;;
64851;SDS011;56050;55.558;-4.644;2023-07-08T08:08:14;5.53;;;1.67;;
64851;SDS011;56050;55.558;-4.644;2023-07-08T08:10:40;6.30;;;2.30;;
64851;SDS011;56050;55.558;-4.644;2023-07-08T08:13:06;7.22;;;3.78;;
64851;SDS011;56050;55.558;-4.644;2023-07-08T08:15:33;5.32;;;1.65;;
64851;SDS011;56050;55.558;-4.644;2023-07-08T08:17:58;5.45;;;2.13;;
64851;SDS011;56050;55.558;-4.644;2023-07-08T08:20:24;5.13;;;2.45;;
64851;SDS011;56050;55.558;-4.644;2023-07-08T08:22:50;5.43;;;1.95;;
64851;SDS011;56050;55.558;-4.644;2023-07-08T08:25:17;6.40;;;2.00;;
64851;SDS011;56050;55.558;-4.644;2023-07-08T08:27:44;6.38;;;2.42;;
64851;SDS011;56050;55.558;-4.644;2023-07-08T08:30:10;4.40;;;1.55;;
64851;SDS011;56050;55.558;-4.644;2023-07-08T08:32:36;5.00;;;1.73;;
64851;SDS011;56050;55.558;-4.644;2023-07-08T08:35:02;7.78;;;2.13;;
64851;SDS011;56050;55.558;-4.644;2023-07-08T08:37:28;7.05;;;1.98;;
64851;SDS011;56050;55.558;-4.644;2023-07-08T08:39:53;5.38;;;3.40;;
64851;SDS011;56050;55.558;-4.644;2023-07-08T08:42:25;7.10;;;2.00;;
64851;SDS011;56050;55.558;-4.644;2023-07-08T08:44:53;6.25;;;2.85;;
64851;SDS011;56050;55.558;-4.644;2023-07-08T08:49:50;5.70;;;1.93;;
64851;SDS011;56050;55.558;-4.644;2023-07-08T08:52:22;5.50;;;1.83;;
64851;SDS011;56050;55.558;-4.644;2023-07-08T08:54:47;4.47;;;1.42;;
64851;SDS011;56050;55.558;-4.644;2023-07-08T09:00:10;5.63;;;2.15;;
64851;SDS011;56050;55.558;-4.644;2023-07-08T09:02:53;5.88;;;2.00;;
64851;SDS011;56050;55.558;-4.644;2023-07-08T09:05:26;6.65;;;1.92;;
64851;SDS011;56050;55.558;-4.644;2023-07-08T09:13:22;7.57;;;1.98;;
64851;SDS011;56050;55.558;-4.644;2023-07-08T09:15:54;5.13;;;1.90;;
64851;SDS011;56050;55.558;-4.644;2023-07-08T09:18:32;5.70;;;2.10;;
64851;SDS011;56050;55.558;-4.644;2023-07-08T09:21:25;6.95;;;2.95;;
64851;SDS011;56050;55.558;-4.644;2023-07-08T09:23:56;6.10;;;2.85;;
64851;SDS011;56050;55.558;-4.644;2023-07-08T09:26:28;5.93;;;2.13;;
64851;SDS011;56050;55.558;-4.644;2023-07-08T09:28:57;5.25;;;2.08;;
64851;SDS011;56050;55.558;-4.644;2023-07-08T09:31:24;9.05;;;2.00;;
64851;SDS011;56050;55.558;-4.644;2023-07-08T09:33:53;8.60;;;3.60;;
64851;SDS011;56050;55.558;-4.644;2023-07-08T09:38:55;5.43;;;2.42;;
64851;SDS011;56050;55.558;-4.644;2023-07-08T09:41:30;5.93;;;1.80;;
64851;SDS011;56050;55.558;-4.644;2023-07-08T09:44:32;8.40;;;2.80;;
64851;SDS011;56050;55.558;-4.644;2023-07-08T09:46:53;7.28;;;2.67;;
64851;SDS011;56050;55.558;-4.644;2023-07-08T09:49:24;6.38;;;3.42;;
64851;SDS011;56050;55.558;-4.644;2023-07-08T09:51:53;6.10;;;2.22;;
64851;SDS011;56050;55.558;-4.644;2023-07-08T09:54:20;5.68;;;1.98;;
64851;SDS011;56050;55.558;-4.644;2023-07-08T09:57:32;6.53;;;1.60;;
64851;SDS011;56050;55.558;-4.644;2023-07-08T09:59:48;8.07;;;2.80;;
64851;SDS011;56050;55.558;-4.644;2023-07-08T10:02:41;7.40;;;2.50;;
64851;SDS011;56050;55.558;-4.644;2023-07-08T10:05:11;5.85;;;2.13;;
64851;SDS011;56050;55.558;-4.644;2023-07-08T10:07:47;7.35;;;2.47;;
64851;SDS011;56050;55.558;-4.644;2023-07-08T10:10:17;6.75;;;2.95;;
64851;SDS011;56050;55.558;-4.644;2023-07-08T10:12:55;5.95;;;2.75;;
64851;SDS011;56050;55.558;-4.644;2023-07-08T10:15:34;6.40;;;2.13;;
64851;SDS011;56050;55.558;-4.644;2023-07-08T10:18:03;5.50;;;2.78;;
64851;SDS011;56050;55.558;-4.644;2023-07-08T10:20:32;8.02;;;2.17;;
64851;SDS011;56050;55.558;-4.644;2023-07-08T10:23:18;7.28;;;2.83;;
64851;SDS011;56050;55.558;-4.644;2023-07-08T10:37:02;7.78;;;1.98;;
64851;SDS011;56050;55.558;-4.644;2023-07-08T10:55:45;6.35;;;1.70;;
64851;SDS011;56050;55.558;-4.644;2023-07-08T10:58:21;6.13;;;2.20;;
64851;SDS011;56050;55.558;-4.644;2023-07-08T11:01:07;6.05;;;1.85;;
64851;SDS011;56050;55.558;-4.644;2023-07-08T11:06:12;5.47;;;1.60;;
64851;SDS011;56050;55.558;-4.644;2023-07-08T11:08:55;5.30;;;1.70;;
64851;SDS011;56050;55.558;-4.644;2023-07-08T11:14:01;7.03;;;2.22;;
64851;SDS011;56050;55.558;-4.644;2023-07-08T11:16:53;7.95;;;1.70;;
64851;SDS011;56050;55.558;-4.644;2023-07-08T11:19:36;6.38;;;2.80;;
64851;SDS011;56050;55.558;-4.644;2023-07-08T11:22:08;7.60;;;2.42;;
64851;SDS011;56050;55.558;-4.644;2023-07-08T11:24:46;6.97;;;2.00;;
64851;SDS011;56050;55.558;-4.644;2023-07-08T11:29:50;6.93;;;2.25;;
64851;SDS011;56050;55.558;-4.644;2023-07-08T11:32:20;5.75;;;1.33;;
64851;SDS011;56050;55.558;-4.644;2023-07-08T11:34:49;5.03;;;1.90;;
64851;SDS011;56050;55.558;-4.644;2023-07-08T11:37:16;8.15;;;2.63;;
64851;SDS011;56050;55.558;-4.644;2023-07-08T11:39:44;7.70;;;2.10;;
64851;SDS011;56050;55.558;-4.644;2023-07-08T11:42:22;8.85;;;2.35;;
64851;SDS011;56050;55.558;-4.644;2023-07-08T11:45:15;7.78;;;2.47;;
64851;SDS011;56050;55.558;-4.644;2023-07-08T11:47:54;6.65;;;1.85;;
64851;SDS011;56050;55.558;-4.644;2023-07-08T11:50:41;4.60;;;1.80;;
64851;SDS011;56050;55.558;-4.644;2023-07-08T11:53:10;8.43;;;2.17;;
64851;SDS011;56050;55.558;-4.644;2023-07-08T11:55:38;6.63;;;2.17;;
64851;SDS011;56050;55.558;-4.644;2023-07-08T11:58:21;6.82;;;1.83;;
64851;SDS011;56050;55.558;-4.644;2023-07-08T12:00:52;6.32;;;2.60;;
64851;SDS011;56050;55.558;-4.644;2023-07-08T12:03:23;4.25;;;1.85;;
64851;SDS011;56050;55.558;-4.644;2023-07-08T12:08:59;7.95;;;2.30;;
64851;SDS011;56050;55.558;-4.644;2023-07-08T12:11:39;9.02;;;2.10;;
64851;SDS011;56050;55.558;-4.644;2023-07-08T12:14:08;7.72;;;1.83;;
64851;SDS011;56050;55.558;-4.644;2023-07-08T12:16:34;5.93;;;2.10;;
64851;SDS011;56050;55.558;-4.644;2023-07-08T12:19:00;7.15;;;1.88;;
64851;SDS011;56050;55.558;-4.644;2023-07-08T12:21:29;7.85;;;2.25;;
64851;SDS011;56050;55.558;-4.644;2023-07-08T12:24:02;7.65;;;1.58;;
64851;SDS011;56050;55.558;-4.644;2023-07-08T12:26:32;8.90;;;1.67;;
64851;SDS011;56050;55.558;-4.644;2023-07-08T12:28:59;6.32;;;1.70;;
64851;SDS011;56050;55.558;-4.644;2023-07-08T12:31:24;7.65;;;2.97;;
64851;SDS011;56050;55.558;-4.644;2023-07-08T12:33:50;6.72;;;1.65;;
64851;SDS011;56050;55.558;-4.644;2023-07-08T12:36:20;9.50;;;1.73;;
64851;SDS011;56050;55.558;-4.644;2023-07-08T12:38:51;5.80;;;1.70;;
64851;SDS011;56050;55.558;-4.644;2023-07-08T12:43:48;9.18;;;2.17;;
64851;SDS011;56050;55.558;-4.644;2023-07-08T12:46:15;9.05;;;1.70;;
64851;SDS011;56050;55.558;-4.644;2023-07-08T12:48:42;6.95;;;2.35;;
64851;SDS011;56050;55.558;-4.644;2023-07-08T12:51:12;5.78;;;1.42;;
64851;SDS011;56050;55.558;-4.644;2023-07-08T12:53:40;5.93;;;1.05;;
64851;SDS011;56050;55.558;-4.644;2023-07-08T12:56:07;8.52;;;1.42;;
64851;SDS011;56050;55.558;-4.644;2023-07-08T12:58:42;5.32;;;0.90;;
64851;SDS011;56050;55.558;-4.644;2023-07-08T13:01:12;3.35;;;0.98;;
64851;SDS011;56050;55.558;-4.644;2023-07-08T13:03:43;4.97;;;1.05;;
64851;SDS011;56050;55.558;-4.644;2023-07-08T13:06:12;6.65;;;0.98;;
64851;SDS011;56050;55.558;-4.644;2023-07-08T13:08:41;4.00;;;1.00;;
64851;SDS011;56050;55.558;-4.644;2023-07-08T13:11:07;5.88;;;1.27;;
64851;SDS011;56050;55.558;-4.644;2023-07-08T13:13:35;4.40;;;1.08;;
64851;SDS011;56050;55.558;-4.644;2023-07-08T13:16:09;4.78;;;0.70;;
64851;SDS011;56050;55.558;-4.644;2023-07-08T13:18:37;7.95;;;1.45;;
64851;SDS011;56050;55.558;-4.644;2023-07-08T13:21:05;2.72;;;0.93;;
64851;SDS011;56050;55.558;-4.644;2023-07-08T13:23:34;6.00;;;0.80;;
64851;SDS011;56050;55.558;-4.644;2023-07-08T13:26:00;5.38;;;2.20;;
64851;SDS011;56050;55.558;-4.644;2023-07-08T13:28:27;7.28;;;1.25;;
64851;SDS011;56050;55.558;-4.644;2023-07-08T13:30:57;6.43;;;0.93;;
64851;SDS011;56050;55.558;-4.644;2023-07-08T13:33:32;5.50;;;1.13;;
64851;SDS011;56050;55.558;-4.644;2023-07-08T13:36:01;2.88;;;0.80;;
64851;SDS011;56050;55.558;-4.644;2023-07-08T13:38:32;3.15;;;1.35;;
64851;SDS011;56050;55.558;-4.644;2023-07-08T13:41:01;3.72;;;0.80;;
64851;SDS011;56050;55.558;-4.644;2023-07-08T13:43:29;3.42;;;1.10;;
64851;SDS011;56050;55.558;-4.644;2023-07-08T13:45:56;3.35;;;0.80;;
64851;SDS011;56050;55.558;-4.644;2023-07-08T13:48:41;5.10;;;0.80;;
64851;SDS011;56050;55.558;-4.644;2023-07-08T13:58:50;4.25;;;1.20;;
64851;SDS011;56050;55.558;-4.644;2023-07-08T14:01:21;7.55;;;1.17;;
64851;SDS011;56050;55.558;-4.644;2023-07-08T14:03:50;5.32;;;0.70;;
64851;SDS011;56050;55.558;-4.644;2023-07-08T14:06:18;6.07;;;1.35;;
64851;SDS011;56050;55.558;-4.644;2023-07-08T14:08:45;5.05;;;0.93;;
64851;SDS011;56050;55.558;-4.644;2023-07-08T14:11:11;6.65;;;0.98;;
64851;SDS011;56050;55.558;-4.644;2023-07-08T14:13:36;6.35;;;1.75;;
64851;SDS011;56050;55.558;-4.644;2023-07-08T14:16:02;5.00;;;1.30;;
64851;SDS011;56050;55.558;-4.644;2023-07-08T14:18:30;3.60;;;0.80;;
64851;SDS011;56050;55.558;-4.644;2023-07-08T14:20:57;5.30;;;0.60;;
64851;SDS011;56050;55.558;-4.644;2023-07-08T14:23:23;2.90;;;0.57;;
64851;SDS011;56050;55.558;-4.644;2023-07-08T14:25:49;4.60;;;1.48;;
64851;SDS011;56050;55.558;-4.644;2023-07-08T14:28:14;2.58;;;0.60;;
64851;SDS011;56050;55.558;-4.644;2023-07-08T14:30:42;3.60;;;0.70;;
64851;SDS011;56050;55.558;-4.644;2023-07-08T14:33:10;5.72;;;0.70;;
64851;SDS011;56050;55.558;-4.644;2023-07-08T14:35:36;4.57;;;0.75;;
64851;SDS011;56050;55.558;-4.644;2023-07-08T14:38:02;3.13;;;0.65;;
64851;SDS011;56050;55.558;-4.644;2023-07-08T14:40:35;3.33;;;0.52;;
64851;SDS011;56050;55.558;-4.644;2023-07-08T14:43:13;2.78;;;0.40;;
64851;SDS011;56050;55.558;-4.644;2023-07-08T14:45:46;3.83;;;0.95;;
64851;SDS011;56050;55.558;-4.644;2023-07-08T14:48:15;3.63;;;0.80;;
64851;SDS011;56050;55.558;-4.644;2023-07-08T14:50:41;1.45;;;0.50;;
64851;SDS011;56050;55.558;-4.644;2023-07-08T14:53:07;3.28;;;0.65;;
64851;SDS011;56050;55.558;-4.644;2023-07-08T14:55:33;3.20;;;0.90;;
64851;SDS011;56050;55.558;-4.644;2023-07-08T14:57:59;5.43;;;0.70;;
64851;SDS011;56050;55.558;-4.644;2023-07-08T15:00:28;3.38;;;0.57;;
64851;SDS011;56050;55.558;-4.644;2023-07-08T15:02:53;5.50;;;0.52;;
64851;SDS011;56050;55.558;-4.644;2023-07-08T15:05:21;2.28;;;0.93;;
64851;SDS011;56050;55.558;-4.644;2023-07-08T15:07:52;4.32;;;0.90;;
64851;SDS011;56050;55.558;-4.644;2023-07-08T15:10:20;2.00;;;0.50;;
64851;SDS011;56050;55.558;-4.644;2023-07-08T15:12:48;2.35;;;0.65;;
64851;SDS011;56050;55.558;-4.644;2023-07-08T15:15:30;4.10;;;0.35;;
64851;SDS011;56050;55.558;-4.644;2023-07-08T15:17:57;3.05;;;0.55;;
64851;SDS011;56050;55.558;-4.644;2023-07-08T15:20:24;3.55;;;0.75;;
64851;SDS011;56050;55.558;-4.644;2023-07-08T15:22:50;3.95;;;0.75;;
64851;SDS011;56050;55.558;-4.644;2023-07-08T15:25:16;2.95;;;0.60;;
64851;SDS011;56050;55.558;-4.644;2023-07-08T15:27:52;4.93;;;0.60;;
64851;SDS011;56050;55.558;-4.644;2023-07-08T15:30:20;2.58;;;0.40;;
64851;SDS011;56050;55.558;-4.644;2023-07-08T15:32:50;2.80;;;0.45;;
64851;SDS011;56050;55.558;-4.644;2023-07-08T15:35:17;3.47;;;0.47;;
64851;SDS011;56050;55.558;-4.644;2023-07-08T15:37:45;0.80;;;0.22;;
64851;SDS011;56050;55.558;-4.644;2023-07-08T15:40:15;1.10;;;0.30;;
64851;SDS011;56050;55.558;-4.644;2023-07-08T15:42:42;3.50;;;0.85;;
64851;SDS011;56050;55.558;-4.644;2023-07-08T15:45:26;2.15;;;0.40;;
64851;SDS011;56050;55.558;-4.644;2023-07-08T15:47:55;4.00;;;0.40;;